sensor_id;sensor_type;location;lat;lon;timestamp;pressure;altitude;pressure_sealevel;temperature
61390;BMP280;47260;48.274;19.814;2022-08-05T00:01:13;99487.56;;;18.43
61390;BMP280;47260;48.274;19.814;2022-08-05T00:03:40;99481.59;;;18.44
61390;BMP280;47260;48.274;19.814;2022-08-05T00:06:07;99478.00;;;18.42
61390;BMP280;47260;48.274;19.814;2022-08-05T00:08:36;99476.53;;;18.41
61390;BMP280;47260;48.274;19.814;2022-08-05T00:11:05;99485.59;;;18.36
61390;BMP280;47260;48.274;19.814;2022-08-05T00:13:34;99486.31;;;18.36
61390;BMP280;47260;48.274;19.814;2022-08-05T00:16:01;99471.06;;;18.33
61390;BMP280;47260;48.274;19.814;2022-08-05T00:18:28;99477.44;;;18.28
61390;BMP280;47260;48.274;19.814;2022-08-05T00:20:55;99477.41;;;18.21
61390;BMP280;47260;48.274;19.814;2022-08-05T00:23:22;99473.97;;;18.20
61390;BMP280;47260;48.274;19.814;2022-08-05T00:25:50;99483.41;;;18.19
61390;BMP280;47260;48.274;19.814;2022-08-05T00:28:17;99482.13;;;18.20
61390;BMP280;47260;48.274;19.814;2022-08-05T00:30:45;99477.75;;;18.17
61390;BMP280;47260;48.274;19.814;2022-08-05T00:33:11;99470.88;;;18.09
61390;BMP280;47260;48.274;19.814;2022-08-05T00:35:38;99483.19;;;18.02
61390;BMP280;47260;48.274;19.814;2022-08-05T00:38:05;99475.41;;;17.99
61390;BMP280;47260;48.274;19.814;2022-08-05T00:40:32;99474.66;;;17.98
61390;BMP280;47260;48.274;19.814;2022-08-05T00:43:03;99467.41;;;17.93
61390;BMP280;47260;48.274;19.814;2022-08-05T00:45:30;99471.41;;;17.92
61390;BMP280;47260;48.274;19.814;2022-08-05T00:47:57;99459.78;;;17.84
61390;BMP280;47260;48.274;19.814;2022-08-05T00:50:24;99458.47;;;17.78
61390;BMP280;47260;48.274;19.814;2022-08-05T00:52:51;99463.00;;;17.75
61390;BMP280;47260;48.274;19.814;2022-08-05T00:55:17;99465.22;;;17.77
61390;BMP280;47260;48.274;19.814;2022-08-05T00:57:44;99458.84;;;17.74
61390;BMP280;47260;48.274;19.814;2022-08-05T01:00:13;99463.56;;;17.74
61390;BMP280;47260;48.274;19.814;2022-08-05T01:02:39;99456.44;;;17.63
61390;BMP280;47260;48.274;19.814;2022-08-05T01:05:07;99458.06;;;17.51
61390;BMP280;47260;48.274;19.814;2022-08-05T01:07:33;99455.34;;;17.51
61390;BMP280;47260;48.274;19.814;2022-08-05T01:10:01;99462.56;;;17.48
61390;BMP280;47260;48.274;19.814;2022-08-05T01:12:29;99468.31;;;17.45
61390;BMP280;47260;48.274;19.814;2022-08-05T01:14:58;99468.31;;;17.37
61390;BMP280;47260;48.274;19.814;2022-08-05T01:17:29;99470.75;;;17.20
61390;BMP280;47260;48.274;19.814;2022-08-05T01:20:04;99462.22;;;17.09
61390;BMP280;47260;48.274;19.814;2022-08-05T01:22:44;99468.00;;;17.13
61390;BMP280;47260;48.274;19.814;2022-08-05T01:25:36;99467.53;;;17.22
61390;BMP280;47260;48.274;19.814;2022-08-05T01:28:15;99463.47;;;17.15
61390;BMP280;47260;48.274;19.814;2022-08-05T01:30:46;99453.91;;;17.14
61390;BMP280;47260;48.274;19.814;2022-08-05T01:33:17;99455.53;;;17.17
61390;BMP280;47260;48.274;19.814;2022-08-05T01:35:48;99463.31;;;17.13
61390;BMP280;47260;48.274;19.814;2022-08-05T01:38:16;99466.41;;;17.17
61390;BMP280;47260;48.274;19.814;2022-08-05T01:40:45;99465.69;;;17.17
61390;BMP280;47260;48.274;19.814;2022-08-05T01:43:15;99467.81;;;17.11
61390;BMP280;47260;48.274;19.814;2022-08-05T01:45:42;99470.53;;;17.11
61390;BMP280;47260;48.274;19.814;2022-08-05T01:48:09;99462.22;;;17.09
61390;BMP280;47260;48.274;19.814;2022-08-05T01:50:38;99467.63;;;17.09
61390;BMP280;47260;48.274;19.814;2022-08-05T01:53:09;99469.31;;;16.91
61390;BMP280;47260;48.274;19.814;2022-08-05T01:55:38;99467.59;;;16.81
61390;BMP280;47260;48.274;19.814;2022-08-05T01:58:07;99463.06;;;16.76
61390;BMP280;47260;48.274;19.814;2022-08-05T02:00:38;99460.34;;;16.76
61390;BMP280;47260;48.274;19.814;2022-08-05T02:03:11;99459.38;;;16.66
61390;BMP280;47260;48.274;19.814;2022-08-05T02:05:39;99464.66;;;16.71
61390;BMP280;47260;48.274;19.814;2022-08-05T02:08:07;99458.97;;;16.82
61390;BMP280;47260;48.274;19.814;2022-08-05T02:10:40;99459.00;;;16.90
61390;BMP280;47260;48.274;19.814;2022-08-05T02:13:12;99458.66;;;16.93
61390;BMP280;47260;48.274;19.814;2022-08-05T02:15:44;99458.34;;;16.97
61390;BMP280;47260;48.274;19.814;2022-08-05T02:18:17;99456.66;;;16.94
61390;BMP280;47260;48.274;19.814;2022-08-05T02:20:49;99456.28;;;16.90
61390;BMP280;47260;48.274;19.814;2022-08-05T02:23:21;99455.56;;;16.89
61390;BMP280;47260;48.274;19.814;2022-08-05T02:25:48;99453.59;;;16.90
61390;BMP280;47260;48.274;19.814;2022-08-05T02:28:22;99449.72;;;16.85
61390;BMP280;47260;48.274;19.814;2022-08-05T02:30:54;99451.00;;;16.84
61390;BMP280;47260;48.274;19.814;2022-08-05T02:33:23;99451.47;;;16.75
61390;BMP280;47260;48.274;19.814;2022-08-05T02:35:52;99455.28;;;16.72
61390;BMP280;47260;48.274;19.814;2022-08-05T02:38:21;99449.13;;;16.72
61390;BMP280;47260;48.274;19.814;2022-08-05T02:40:49;99457.44;;;16.74
61390;BMP280;47260;48.274;19.814;2022-08-05T02:43:17;99452.16;;;16.68
61390;BMP280;47260;48.274;19.814;2022-08-05T02:45:45;99449.00;;;16.57
61390;BMP280;47260;48.274;19.814;2022-08-05T02:48:15;99452.47;;;16.37
61390;BMP280;47260;48.274;19.814;2022-08-05T02:50:43;99448.06;;;16.34
61390;BMP280;47260;48.274;19.814;2022-08-05T02:53:15;99454.09;;;16.40
61390;BMP280;47260;48.274;19.814;2022-08-05T02:55:43;99452.84;;;16.41
61390;BMP280;47260;48.274;19.814;2022-08-05T02:58:13;99452.47;;;16.37
61390;BMP280;47260;48.274;19.814;2022-08-05T03:00:41;99451.00;;;16.36
61390;BMP280;47260;48.274;19.814;2022-08-05T03:03:12;99448.44;;;16.30
61390;BMP280;47260;48.274;19.814;2022-08-05T03:05:41;99449.34;;;16.33
61390;BMP280;47260;48.274;19.814;2022-08-05T03:08:09;99446.22;;;16.28
61390;BMP280;47260;48.274;19.814;2022-08-05T03:10:36;99446.22;;;16.28
61390;BMP280;47260;48.274;19.814;2022-08-05T03:13:10;99448.19;;;16.28
61390;BMP280;47260;48.274;19.814;2022-08-05T03:15:40;99440.50;;;16.32
61390;BMP280;47260;48.274;19.814;2022-08-05T03:18:07;99446.09;;;16.34
61390;BMP280;47260;48.274;19.814;2022-08-05T03:20:34;99437.50;;;16.22
61390;BMP280;47260;48.274;19.814;2022-08-05T03:23:03;99438.78;;;16.21
61390;BMP280;47260;48.274;19.814;2022-08-05T03:25:31;99441.28;;;16.19
61390;BMP280;47260;48.274;19.814;2022-08-05T03:27:59;99445.06;;;16.16
61390;BMP280;47260;48.274;19.814;2022-08-05T03:30:27;99430.78;;;16.16
61390;BMP280;47260;48.274;19.814;2022-08-05T03:32:57;99437.09;;;16.18
61390;BMP280;47260;48.274;19.814;2022-08-05T03:35:24;99431.94;;;16.28
61390;BMP280;47260;48.274;19.814;2022-08-05T03:37:51;99442.66;;;16.34
61390;BMP280;47260;48.274;19.814;2022-08-05T03:40:19;99440.69;;;16.34
61390;BMP280;47260;48.274;19.814;2022-08-05T03:42:45;99440.34;;;16.38
61390;BMP280;47260;48.274;19.814;2022-08-05T03:45:12;99432.63;;;16.42
61390;BMP280;47260;48.274;19.814;2022-08-05T03:47:39;99437.38;;;16.49
61390;BMP280;47260;48.274;19.814;2022-08-05T03:50:06;99438.16;;;16.57
61390;BMP280;47260;48.274;19.814;2022-08-05T03:52:38;99437.16;;;16.67
61390;BMP280;47260;48.274;19.814;2022-08-05T03:55:09;99448.81;;;17.11
61390;BMP280;47260;48.274;19.814;2022-08-05T03:57:39;99444.78;;;17.98
61390;BMP280;47260;48.274;19.814;2022-08-05T04:00:10;99441.53;;;18.60
61390;BMP280;47260;48.274;19.814;2022-08-05T04:02:39;99448.91;;;18.89
61390;BMP280;47260;48.274;19.814;2022-08-05T04:05:08;99447.53;;;19.21
61390;BMP280;47260;48.274;19.814;2022-08-05T04:07:37;99445.59;;;19.53
61390;BMP280;47260;48.274;19.814;2022-08-05T04:10:05;99454.25;;;19.91
61390;BMP280;47260;48.274;19.814;2022-08-05T04:12:32;99449.97;;;20.30
61390;BMP280;47260;48.274;19.814;2022-08-05T04:15:00;99451.03;;;20.69
61390;BMP280;47260;48.274;19.814;2022-08-05T04:17:27;99453.34;;;21.23
61390;BMP280;47260;48.274;19.814;2022-08-05T04:19:54;99455.13;;;21.64
61390;BMP280;47260;48.274;19.814;2022-08-05T04:22:21;99456.28;;;22.07
61390;BMP280;47260;48.274;19.814;2022-08-05T04:24:48;99450.03;;;22.62
61390;BMP280;47260;48.274;19.814;2022-08-05T04:27:15;99451.47;;;22.82
61390;BMP280;47260;48.274;19.814;2022-08-05T04:29:41;99458.50;;;23.13
61390;BMP280;47260;48.274;19.814;2022-08-05T04:32:10;99455.44;;;23.19
61390;BMP280;47260;48.274;19.814;2022-08-05T04:34:37;99444.03;;;23.72
61390;BMP280;47260;48.274;19.814;2022-08-05T04:37:03;99451.28;;;23.58
61390;BMP280;47260;48.274;19.814;2022-08-05T04:39:30;99446.38;;;23.87
61390;BMP280;47260;48.274;19.814;2022-08-05T04:41:58;99456.56;;;23.75
61390;BMP280;47260;48.274;19.814;2022-08-05T04:44:25;99444.72;;;23.72
61390;BMP280;47260;48.274;19.814;2022-08-05T04:46:52;99447.06;;;23.97
61390;BMP280;47260;48.274;19.814;2022-08-05T04:49:20;99452.09;;;24.00
61390;BMP280;47260;48.274;19.814;2022-08-05T04:51:47;99448.66;;;24.21
61390;BMP280;47260;48.274;19.814;2022-08-05T04:54:14;99452.84;;;24.87
61390;BMP280;47260;48.274;19.814;2022-08-05T04:56:40;99445.03;;;25.28
61390;BMP280;47260;48.274;19.814;2022-08-05T04:59:07;99439.41;;;25.83
61390;BMP280;47260;48.274;19.814;2022-08-05T05:01:34;99440.03;;;26.18
61390;BMP280;47260;48.274;19.814;2022-08-05T05:04:01;99437.22;;;26.55
61390;BMP280;47260;48.274;19.814;2022-08-05T05:06:29;99443.28;;;26.90
61390;BMP280;47260;48.274;19.814;2022-08-05T05:08:56;99443.53;;;27.07
61390;BMP280;47260;48.274;19.814;2022-08-05T05:11:22;99440.47;;;27.15
61390;BMP280;47260;48.274;19.814;2022-08-05T05:13:49;99436.22;;;27.66
61390;BMP280;47260;48.274;19.814;2022-08-05T05:16:16;99431.72;;;28.02
61390;BMP280;47260;48.274;19.814;2022-08-05T05:18:42;99433.00;;;27.72
61390;BMP280;47260;48.274;19.814;2022-08-05T05:21:09;99427.88;;;27.93
61390;BMP280;47260;48.274;19.814;2022-08-05T05:23:37;99430.34;;;28.16
61390;BMP280;47260;48.274;19.814;2022-08-05T05:26:04;99435.66;;;28.26
61390;BMP280;47260;48.274;19.814;2022-08-05T05:28:31;99439.00;;;27.95
61390;BMP280;47260;48.274;19.814;2022-08-05T05:30:58;99437.69;;;27.83
61390;BMP280;47260;48.274;19.814;2022-08-05T05:33:25;99432.88;;;27.83
61390;BMP280;47260;48.274;19.814;2022-08-05T05:35:51;99424.63;;;28.57
61390;BMP280;47260;48.274;19.814;2022-08-05T05:38:18;99435.63;;;29.01
61390;BMP280;47260;48.274;19.814;2022-08-05T05:40:46;99435.47;;;28.97
61390;BMP280;47260;48.274;19.814;2022-08-05T05:43:13;99427.78;;;28.65
61390;BMP280;47260;48.274;19.814;2022-08-05T05:45:40;99427.09;;;28.80
61390;BMP280;47260;48.274;19.814;2022-08-05T05:48:07;99423.13;;;29.16
61390;BMP280;47260;48.274;19.814;2022-08-05T05:50:34;99428.84;;;29.20
61390;BMP280;47260;48.274;19.814;2022-08-05T05:53:04;99431.22;;;29.27
61390;BMP280;47260;48.274;19.814;2022-08-05T05:55:30;99436.31;;;30.01
61390;BMP280;47260;48.274;19.814;2022-08-05T05:57:58;99429.91;;;30.68
61390;BMP280;47260;48.274;19.814;2022-08-05T06:00:25;99420.50;;;30.58
61390;BMP280;47260;48.274;19.814;2022-08-05T06:02:52;99433.75;;;31.59
61390;BMP280;47260;48.274;19.814;2022-08-05T06:05:19;99429.53;;;32.01
61390;BMP280;47260;48.274;19.814;2022-08-05T06:07:46;99430.59;;;32.13
61390;BMP280;47260;48.274;19.814;2022-08-05T06:10:14;99434.19;;;32.18
61390;BMP280;47260;48.274;19.814;2022-08-05T06:12:41;99433.41;;;32.62
61390;BMP280;47260;48.274;19.814;2022-08-05T06:15:09;99435.38;;;32.34
61390;BMP280;47260;48.274;19.814;2022-08-05T06:17:36;99430.56;;;31.47
61390;BMP280;47260;48.274;19.814;2022-08-05T06:20:04;99429.16;;;32.12
61390;BMP280;47260;48.274;19.814;2022-08-05T06:22:33;99433.66;;;32.47
61390;BMP280;47260;48.274;19.814;2022-08-05T06:25:00;99424.06;;;32.05
61390;BMP280;47260;48.274;19.814;2022-08-05T06:27:26;99438.16;;;31.89
61390;BMP280;47260;48.274;19.814;2022-08-05T06:29:53;99438.59;;;31.80
61390;BMP280;47260;48.274;19.814;2022-08-05T06:32:21;99438.91;;;32.37
61390;BMP280;47260;48.274;19.814;2022-08-05T06:34:48;99441.97;;;32.70
61390;BMP280;47260;48.274;19.814;2022-08-05T06:37:15;99437.88;;;32.99
61390;BMP280;47260;48.274;19.814;2022-08-05T06:39:42;99443.88;;;32.89
61390;BMP280;47260;48.274;19.814;2022-08-05T06:42:08;99438.34;;;33.74
61390;BMP280;47260;48.274;19.814;2022-08-05T06:44:35;99441.94;;;33.21
61390;BMP280;47260;48.274;19.814;2022-08-05T06:47:02;99438.59;;;33.54
61390;BMP280;47260;48.274;19.814;2022-08-05T06:49:30;99435.19;;;34.21
61390;BMP280;47260;48.274;19.814;2022-08-05T06:51:57;99435.81;;;34.88
61390;BMP280;47260;48.274;19.814;2022-08-05T06:54:24;99425.00;;;34.00
61390;BMP280;47260;48.274;19.814;2022-08-05T06:56:50;99431.72;;;34.93
61390;BMP280;47260;48.274;19.814;2022-08-05T06:59:17;99427.66;;;35.00
61390;BMP280;47260;48.274;19.814;2022-08-05T07:01:44;99431.09;;;36.43
61390;BMP280;47260;48.274;19.814;2022-08-05T07:04:11;99423.34;;;37.15
61390;BMP280;47260;48.274;19.814;2022-08-05T07:06:39;99421.34;;;37.30
61390;BMP280;47260;48.274;19.814;2022-08-05T07:09:06;99431.25;;;37.45
61390;BMP280;47260;48.274;19.814;2022-08-05T07:11:33;99423.13;;;38.05
61390;BMP280;47260;48.274;19.814;2022-08-05T07:14:00;99425.19;;;37.94
61390;BMP280;47260;48.274;19.814;2022-08-05T07:16:44;99427.16;;;37.62
61390;BMP280;47260;48.274;19.814;2022-08-05T07:19:19;99424.63;;;38.22
61390;BMP280;47260;48.274;19.814;2022-08-05T07:21:48;99426.63;;;37.95
61390;BMP280;47260;48.274;19.814;2022-08-05T07:24:16;99422.56;;;39.00
61390;BMP280;47260;48.274;19.814;2022-08-05T07:26:44;99426.72;;;38.27
61390;BMP280;47260;48.274;19.814;2022-08-05T07:29:11;99423.84;;;38.05
61390;BMP280;47260;48.274;19.814;2022-08-05T07:31:38;99427.53;;;37.12
61390;BMP280;47260;48.274;19.814;2022-08-05T07:34:05;99418.94;;;38.02
61390;BMP280;47260;48.274;19.814;2022-08-05T07:36:32;99427.28;;;37.88
61390;BMP280;47260;48.274;19.814;2022-08-05T07:39:02;99430.19;;;36.94
61390;BMP280;47260;48.274;19.814;2022-08-05T07:41:29;99426.81;;;37.12
61390;BMP280;47260;48.274;19.814;2022-08-05T07:43:57;99426.50;;;37.73
61390;BMP280;47260;48.274;19.814;2022-08-05T07:46:25;99423.19;;;38.25
61390;BMP280;47260;48.274;19.814;2022-08-05T07:48:53;99425.94;;;36.91
61390;BMP280;47260;48.274;19.814;2022-08-05T07:51:20;99422.13;;;37.40
61390;BMP280;47260;48.274;19.814;2022-08-05T07:53:47;99422.75;;;35.42
61390;BMP280;47260;48.274;19.814;2022-08-05T07:56:15;99414.41;;;35.01
61390;BMP280;47260;48.274;19.814;2022-08-05T07:58:42;99409.72;;;35.13
61390;BMP280;47260;48.274;19.814;2022-08-05T08:01:09;99404.56;;;34.58
61390;BMP280;47260;48.274;19.814;2022-08-05T08:03:36;99402.94;;;34.83
61390;BMP280;47260;48.274;19.814;2022-08-05T08:06:03;99403.19;;;34.97
61390;BMP280;47260;48.274;19.814;2022-08-05T08:08:29;99402.94;;;34.10
61390;BMP280;47260;48.274;19.814;2022-08-05T08:10:56;99406.63;;;33.57
61390;BMP280;47260;48.274;19.814;2022-08-05T08:13:24;99405.44;;;33.09
61390;BMP280;47260;48.274;19.814;2022-08-05T08:15:52;99405.06;;;33.21
61390;BMP280;47260;48.274;19.814;2022-08-05T08:18:18;99408.16;;;33.62
61390;BMP280;47260;48.274;19.814;2022-08-05T08:20:45;99408.47;;;34.08
61390;BMP280;47260;48.274;19.814;2022-08-05T08:23:13;99404.56;;;34.23
61390;BMP280;47260;48.274;19.814;2022-08-05T08:25:42;99402.75;;;32.60
61390;BMP280;47260;48.274;19.814;2022-08-05T08:28:09;99403.34;;;32.31
61390;BMP280;47260;48.274;19.814;2022-08-05T08:30:38;99410.34;;;32.58
61390;BMP280;47260;48.274;19.814;2022-08-05T08:33:08;99407.63;;;31.89
61390;BMP280;47260;48.274;19.814;2022-08-05T08:35:35;99401.97;;;31.42
61390;BMP280;47260;48.274;19.814;2022-08-05T08:38:02;99403.34;;;32.08
61390;BMP280;47260;48.274;19.814;2022-08-05T08:40:31;99409.06;;;32.37
61390;BMP280;47260;48.274;19.814;2022-08-05T08:42:59;99399.44;;;32.66
61390;BMP280;47260;48.274;19.814;2022-08-05T08:45:26;99406.47;;;32.20
61390;BMP280;47260;48.274;19.814;2022-08-05T08:47:55;99398.97;;;31.79
61390;BMP280;47260;48.274;19.814;2022-08-05T08:50:22;99404.78;;;31.87
61390;BMP280;47260;48.274;19.814;2022-08-05T08:52:52;99400.06;;;31.92
61390;BMP280;47260;48.274;19.814;2022-08-05T08:55:20;99395.19;;;32.14
61390;BMP280;47260;48.274;19.814;2022-08-05T08:57:47;99399.56;;;32.21
61390;BMP280;47260;48.274;19.814;2022-08-05T09:00:14;99395.88;;;31.91
61390;BMP280;47260;48.274;19.814;2022-08-05T09:02:43;99391.13;;;31.50
61390;BMP280;47260;48.274;19.814;2022-08-05T09:05:11;99393.38;;;31.77
61390;BMP280;47260;48.274;19.814;2022-08-05T09:07:38;99394.91;;;32.04
61390;BMP280;47260;48.274;19.814;2022-08-05T09:10:06;99379.72;;;32.56
61390;BMP280;47260;48.274;19.814;2022-08-05T09:12:33;99372.25;;;32.90
61390;BMP280;47260;48.274;19.814;2022-08-05T09:15:01;99375.47;;;33.06
61390;BMP280;47260;48.274;19.814;2022-08-05T09:17:29;99372.19;;;33.15
61390;BMP280;47260;48.274;19.814;2022-08-05T09:19:56;99368.16;;;33.20
61390;BMP280;47260;48.274;19.814;2022-08-05T09:22:25;99368.00;;;33.44
61390;BMP280;47260;48.274;19.814;2022-08-05T09:24:58;99364.06;;;33.53
61390;BMP280;47260;48.274;19.814;2022-08-05T09:27:30;99365.66;;;33.62
61390;BMP280;47260;48.274;19.814;2022-08-05T09:29:58;99354.03;;;33.73
61390;BMP280;47260;48.274;19.814;2022-08-05T09:32:33;99354.03;;;33.73
61390;BMP280;47260;48.274;19.814;2022-08-05T09:35:08;99338.75;;;33.72
61390;BMP280;47260;48.274;19.814;2022-08-05T09:37:36;99351.50;;;33.52
61390;BMP280;47260;48.274;19.814;2022-08-05T09:40:05;99351.13;;;33.36
61390;BMP280;47260;48.274;19.814;2022-08-05T09:42:38;99343.44;;;33.34
61390;BMP280;47260;48.274;19.814;2022-08-05T09:45:06;99344.78;;;32.76
61390;BMP280;47260;48.274;19.814;2022-08-05T09:47:34;99347.13;;;33.13
61390;BMP280;47260;48.274;19.814;2022-08-05T09:50:00;99345.41;;;33.28
61390;BMP280;47260;48.274;19.814;2022-08-05T09:52:30;99336.38;;;33.29
61390;BMP280;47260;48.274;19.814;2022-08-05T09:54:59;99340.00;;;33.36
61390;BMP280;47260;48.274;19.814;2022-08-05T09:57:35;99345.13;;;32.63
61390;BMP280;47260;48.274;19.814;2022-08-05T10:00:06;99346.47;;;32.87
61390;BMP280;47260;48.274;19.814;2022-08-05T10:02:35;99336.25;;;32.96
61390;BMP280;47260;48.274;19.814;2022-08-05T10:05:07;99344.97;;;33.10
61390;BMP280;47260;48.274;19.814;2022-08-05T10:07:50;99334.53;;;32.83
61390;BMP280;47260;48.274;19.814;2022-08-05T10:10:20;99334.31;;;32.75
61390;BMP280;47260;48.274;19.814;2022-08-05T10:12:49;99329.59;;;33.09
61390;BMP280;47260;48.274;19.814;2022-08-05T10:15:19;99321.72;;;33.29
61390;BMP280;47260;48.274;19.814;2022-08-05T10:18:10;99317.22;;;32.86
61390;BMP280;47260;48.274;19.814;2022-08-05T10:20:40;99319.66;;;33.00
61390;BMP280;47260;48.274;19.814;2022-08-05T10:23:08;99320.84;;;33.20
61390;BMP280;47260;48.274;19.814;2022-08-05T10:25:36;99315.53;;;33.30
61390;BMP280;47260;48.274;19.814;2022-08-05T10:28:05;99314.19;;;33.33
61390;BMP280;47260;48.274;19.814;2022-08-05T10:30:33;99317.81;;;33.40
61390;BMP280;47260;48.274;19.814;2022-08-05T10:33:01;99323.75;;;33.26
61390;BMP280;47260;48.274;19.814;2022-08-05T10:35:27;99306.25;;;33.22
61390;BMP280;47260;48.274;19.814;2022-08-05T10:37:55;99308.19;;;33.45
61390;BMP280;47260;48.274;19.814;2022-08-05T10:40:28;99306.38;;;33.26
61390;BMP280;47260;48.274;19.814;2022-08-05T10:43:03;99298.97;;;33.07
61390;BMP280;47260;48.274;19.814;2022-08-05T10:45:34;99297.09;;;33.47
61390;BMP280;47260;48.274;19.814;2022-08-05T10:48:28;99298.66;;;33.56
61390;BMP280;47260;48.274;19.814;2022-08-05T10:51:00;99300.16;;;33.61
61390;BMP280;47260;48.274;19.814;2022-08-05T10:53:38;99286.38;;;33.67
61390;BMP280;47260;48.274;19.814;2022-08-05T10:56:08;99294.50;;;33.55
61390;BMP280;47260;48.274;19.814;2022-08-05T10:58:46;99285.03;;;33.07
61390;BMP280;47260;48.274;19.814;2022-08-05T11:01:14;99283.94;;;33.49
61390;BMP280;47260;48.274;19.814;2022-08-05T11:04:03;99280.69;;;33.29
61390;BMP280;47260;48.274;19.814;2022-08-05T11:06:30;99277.78;;;33.55
61390;BMP280;47260;48.274;19.814;2022-08-05T11:09:10;99274.13;;;33.15
61390;BMP280;47260;48.274;19.814;2022-08-05T11:11:37;99275.84;;;33.00
61390;BMP280;47260;48.274;19.814;2022-08-05T11:14:09;99283.72;;;33.41
61390;BMP280;47260;48.274;19.814;2022-08-05T11:16:36;99263.94;;;33.59
61390;BMP280;47260;48.274;19.814;2022-08-05T11:19:25;99266.25;;;33.37
61390;BMP280;47260;48.274;19.814;2022-08-05T11:21:53;99267.69;;;33.38
61390;BMP280;47260;48.274;19.814;2022-08-05T11:24:21;99270.25;;;33.61
61390;BMP280;47260;48.274;19.814;2022-08-05T11:29:36;99266.28;;;33.39
61390;BMP280;47260;48.274;19.814;2022-08-05T11:32:23;99264.66;;;33.59
61390;BMP280;47260;48.274;19.814;2022-08-05T11:34:51;99253.72;;;33.69
61390;BMP280;47260;48.274;19.814;2022-08-05T11:37:40;99261.75;;;33.89
61390;BMP280;47260;48.274;19.814;2022-08-05T11:40:07;99253.53;;;33.95
61390;BMP280;47260;48.274;19.814;2022-08-05T11:42:38;99255.19;;;33.72
61390;BMP280;47260;48.274;19.814;2022-08-05T11:45:08;99252.06;;;33.25
61390;BMP280;47260;48.274;19.814;2022-08-05T11:47:35;99258.16;;;33.17
61390;BMP280;47260;48.274;19.814;2022-08-05T11:50:03;99254.53;;;33.42
61390;BMP280;47260;48.274;19.814;2022-08-05T11:52:29;99259.75;;;33.58
61390;BMP280;47260;48.274;19.814;2022-08-05T11:54:57;99257.31;;;33.42
61390;BMP280;47260;48.274;19.814;2022-08-05T11:57:27;99253.28;;;33.49
61390;BMP280;47260;48.274;19.814;2022-08-05T11:59:54;99254.03;;;33.52
61390;BMP280;47260;48.274;19.814;2022-08-05T12:02:27;99248.34;;;33.79
61390;BMP280;47260;48.274;19.814;2022-08-05T12:04:56;99245.53;;;33.77
61390;BMP280;47260;48.274;19.814;2022-08-05T12:07:24;99248.50;;;33.87
61390;BMP280;47260;48.274;19.814;2022-08-05T12:09:52;99240.25;;;33.93
61390;BMP280;47260;48.274;19.814;2022-08-05T12:12:23;99249.34;;;33.96
61390;BMP280;47260;48.274;19.814;2022-08-05T12:14:50;99240.88;;;33.88
61390;BMP280;47260;48.274;19.814;2022-08-05T12:17:17;99234.03;;;33.95
61390;BMP280;47260;48.274;19.814;2022-08-05T12:19:47;99238.91;;;33.96
61390;BMP280;47260;48.274;19.814;2022-08-05T12:22:16;99238.44;;;33.39
61390;BMP280;47260;48.274;19.814;2022-08-05T12:24:44;99233.13;;;33.17
61390;BMP280;47260;48.274;19.814;2022-08-05T12:27:18;99236.38;;;33.39
61390;BMP280;47260;48.274;19.814;2022-08-05T12:29:45;99243.81;;;33.60
61390;BMP280;47260;48.274;19.814;2022-08-05T12:32:12;99232.94;;;33.76
61390;BMP280;47260;48.274;19.814;2022-08-05T12:34:39;99230.38;;;33.86
61390;BMP280;47260;48.274;19.814;2022-08-05T12:37:09;99235.31;;;33.88
61390;BMP280;47260;48.274;19.814;2022-08-05T12:39:38;99229.41;;;33.74
61390;BMP280;47260;48.274;19.814;2022-08-05T12:42:10;99225.81;;;33.65
61390;BMP280;47260;48.274;19.814;2022-08-05T12:44:38;99222.16;;;33.59
61390;BMP280;47260;48.274;19.814;2022-08-05T12:47:05;99232.56;;;33.56
61390;BMP280;47260;48.274;19.814;2022-08-05T12:49:39;99221.75;;;33.39
61390;BMP280;47260;48.274;19.814;2022-08-05T12:52:12;99216.16;;;33.39
61390;BMP280;47260;48.274;19.814;2022-08-05T12:54:40;99216.56;;;33.57
61390;BMP280;47260;48.274;19.814;2022-08-05T12:57:08;99212.69;;;33.38
61390;BMP280;47260;48.274;19.814;2022-08-05T12:59:45;99211.25;;;33.35
61390;BMP280;47260;48.274;19.814;2022-08-05T13:02:15;99203.78;;;33.46
61390;BMP280;47260;48.274;19.814;2022-08-05T13:04:43;99209.63;;;33.58
61390;BMP280;47260;48.274;19.814;2022-08-05T13:07:14;99205.69;;;33.71
61390;BMP280;47260;48.274;19.814;2022-08-05T13:09:48;99202.81;;;33.65
61390;BMP280;47260;48.274;19.814;2022-08-05T13:12:16;99202.28;;;33.74
61390;BMP280;47260;48.274;19.814;2022-08-05T13:14:44;99201.88;;;33.88
61390;BMP280;47260;48.274;19.814;2022-08-05T13:17:16;99194.84;;;33.85
61390;BMP280;47260;48.274;19.814;2022-08-05T13:19:57;99182.94;;;33.82
61390;BMP280;47260;48.274;19.814;2022-08-05T13:22:26;99183.72;;;33.87
61390;BMP280;47260;48.274;19.814;2022-08-05T13:24:52;99187.06;;;33.79
61390;BMP280;47260;48.274;19.814;2022-08-05T13:27:26;99180.72;;;33.75
61390;BMP280;47260;48.274;19.814;2022-08-05T13:29:54;99182.09;;;33.76
61390;BMP280;47260;48.274;19.814;2022-08-05T13:32:20;99185.34;;;33.62
61390;BMP280;47260;48.274;19.814;2022-08-05T13:34:48;99179.59;;;33.52
61390;BMP280;47260;48.274;19.814;2022-08-05T13:37:15;99176.09;;;33.54
61390;BMP280;47260;48.274;19.814;2022-08-05T13:39:44;99174.78;;;33.57
61390;BMP280;47260;48.274;19.814;2022-08-05T13:42:10;99169.25;;;33.59
61390;BMP280;47260;48.274;19.814;2022-08-05T13:44:37;99171.50;;;33.68
61390;BMP280;47260;48.274;19.814;2022-08-05T13:47:04;99171.03;;;33.78
61390;BMP280;47260;48.274;19.814;2022-08-05T13:49:31;99170.34;;;33.79
61390;BMP280;47260;48.274;19.814;2022-08-05T13:52:08;99166.84;;;33.79
61390;BMP280;47260;48.274;19.814;2022-08-05T13:54:35;99166.84;;;33.79
61390;BMP280;47260;48.274;19.814;2022-08-05T13:57:03;99166.69;;;33.71
61390;BMP280;47260;48.274;19.814;2022-08-05T13:59:30;99161.13;;;33.71
61390;BMP280;47260;48.274;19.814;2022-08-05T14:01:57;99156.81;;;33.64
61390;BMP280;47260;48.274;19.814;2022-08-05T14:04:28;99143.03;;;33.36
61390;BMP280;47260;48.274;19.814;2022-08-05T14:07:12;99156.59;;;33.52
61390;BMP280;47260;48.274;19.814;2022-08-05T14:09:39;99150.63;;;33.32